Time;durP1;ratioP1;P1;durP2;ratioP2;P2;SDS_P1;SDS_P2;PMS_P1;PMS_P2;Temp;Humidity;BMP_temperature;BMP_pressure;BME280_temperature;BME280_humidity;BME280_pressure;Samples;Min_cycle;Max_cycle;Signal;HPM_P1;HPM_P2
2023/08/12 00:01:25;;;;;;;0.10;0.10;;;;;;;;;;6159448;23;20086;-90
2023/08/12 00:03:51;;;;;;;0.10;0.10;;;;;;;;;;6135161;23;20045;-91
2023/08/12 00:06:17;;;;;;;0.10;0.10;;;;;;;;;;6134708;23;20020;-91
2023/08/12 00:08:43;;;;;;;0.10;0.10;;;;;;;;;;6135172;23;20009;-91
2023/08/12 00:11:09;;;;;;;0.20;0.20;;;;;;;;;;6135016;23;20447;-91
2023/08/12 00:13:35;;;;;;;0.10;0.10;;;;;;;;;;6158778;23;20016;-91
2023/08/12 00:16:01;;;;;;;0.10;0.10;;;;;;;;;;6134403;23;20067;-91
2023/08/12 00:18:28;;;;;;;0.13;0.13;;;;;;;;;;6134905;23;20017;-91
2023/08/12 00:20:55;;;;;;;0.10;0.10;;;;;;;;;;6158732;23;20021;-91
2023/08/12 00:23:21;;;;;;;0.10;0.10;;;;;;;;;;6135084;23;20430;-91
2023/08/12 00:25:47;;;;;;;0.10;0.10;;;;;;;;;;6159211;23;20017;-92
2023/08/12 00:28:13;;;;;;;0.10;0.10;;;;;;;;;;6158926;23;20031;-91
2023/08/12 00:30:39;;;;;;;0.10;0.10;;;;;;;;;;6158673;23;20323;-90
2023/08/12 00:33:05;;;;;;;0.10;0.10;;;;;;;;;;6158850;23;20013;-91
2023/08/12 00:35:31;;;;;;;0.10;0.10;;;;;;;;;;6133948;23;20036;-90
2023/08/12 00:37:57;;;;;;;0.10;0.10;;;;;;;;;;6134373;23;20016;-90
2023/08/12 00:40:24;;;;;;;0.10;0.10;;;;;;;;;;6158478;23;20346;-89
2023/08/12 00:42:50;;;;;;;0.10;0.10;;;;;;;;;;6134885;23;20064;-91
2023/08/12 00:45:16;;;;;;;0.10;0.10;;;;;;;;;;6158519;23;20228;-91
2023/08/12 00:47:42;;;;;;;0.10;0.10;;;;;;;;;;6134040;23;20016;-91
2023/08/12 00:50:08;;;;;;;0.10;0.10;;;;;;;;;;6159078;23;20013;-91
2023/08/12 00:52:34;;;;;;;0.10;0.10;;;;;;;;;;6158900;23;20410;-91
2023/08/12 00:55:00;;;;;;;0.17;0.17;;;;;;;;;;6158634;23;20013;-90
2023/08/12 00:57:26;;;;;;;0.10;0.10;;;;;;;;;;6158758;23;20342;-90
2023/08/12 00:59:52;;;;;;;0.10;0.10;;;;;;;;;;6133880;23;20045;-90
2023/08/12 01:02:18;;;;;;;0.10;0.10;;;;;;;;;;6158785;23;20017;-90
2023/08/12 01:04:44;;;;;;;0.10;0.10;;;;;;;;;;6158349;23;20070;-90
2023/08/12 01:07:11;;;;;;;0.10;0.10;;;;;;;;;;6133404;23;20017;-89
2023/08/12 01:09:37;;;;;;;0.20;0.20;;;;;;;;;;6158237;23;20013;-89
2023/08/12 01:12:07;;;;;;;0.10;0.10;;;;;;;;;;6158229;23;20015;-90
2023/08/12 01:14:40;;;;;;;0.10;0.10;;;;;;;;;;6134127;23;20009;-91
2023/08/12 01:17:07;;;;;;;0.10;0.10;;;;;;;;;;6134348;23;20101;-91
2023/08/12 01:19:34;;;;;;;0.10;0.10;;;;;;;;;;6158442;23;20021;-91
2023/08/12 01:22:01;;;;;;;0.10;0.10;;;;;;;;;;6133439;23;20013;-91
2023/08/12 01:24:27;;;;;;;0.10;0.10;;;;;;;;;;6133725;23;20024;-91
2023/08/12 01:26:55;;;;;;;0.10;0.10;;;;;;;;;;6182720;23;20017;-91
2023/08/12 01:29:21;;;;;;;0.10;0.10;;;;;;;;;;6134364;23;20040;-91
2023/08/12 01:31:52;;;;;;;0.10;0.10;;;;;;;;;;6158189;23;20020;-91
2023/08/12 01:34:22;;;;;;;0.10;0.10;;;;;;;;;;6158301;23;20328;-91
2023/08/12 01:36:50;;;;;;;0.10;0.10;;;;;;;;;;6158644;23;20013;-91
2023/08/12 01:39:18;;;;;;;0.10;0.10;;;;;;;;;;6158498;23;20025;-92
2023/08/12 01:41:44;;;;;;;0.10;0.10;;;;;;;;;;6134424;23;20017;-92
2023/08/12 01:44:10;;;;;;;0.10;0.10;;;;;;;;;;6159049;23;20063;-91
2023/08/12 01:46:36;;;;;;;0.10;0.10;;;;;;;;;;6133785;23;20448;-92
2023/08/12 01:49:02;;;;;;;0.10;0.10;;;;;;;;;;6159085;23;20009;-92
2023/08/12 01:51:29;;;;;;;0.10;0.10;;;;;;;;;;6158765;23;20088;-92
2023/08/12 01:53:56;;;;;;;0.10;0.10;;;;;;;;;;6133891;23;20470;-92
2023/08/12 01:56:22;;;;;;;0.10;0.10;;;;;;;;;;6133962;23;20009;-91
2023/08/12 01:58:48;;;;;;;0.10;0.10;;;;;;;;;;6158469;23;20403;-91
2023/08/12 02:01:13;;;;;;;0.10;0.10;;;;;;;;;;6158254;23;20062;-91
2023/08/12 02:03:39;;;;;;;0.10;0.10;;;;;;;;;;6158158;23;20023;-91
2023/08/12 02:06:05;;;;;;;0.10;0.10;;;;;;;;;;6182642;23;20091;-90
2023/08/12 02:08:31;;;;;;;0.10;0.10;;;;;;;;;;6182657;23;20092;-90
2023/08/12 02:10:58;;;;;;;0.10;0.10;;;;;;;;;;6158276;23;20044;-91
2023/08/12 02:13:24;;;;;;;0.10;0.10;;;;;;;;;;6182784;23;20009;-90
2023/08/12 02:15:50;;;;;;;0.10;0.10;;;;;;;;;;6133428;23;20284;-90
2023/08/12 02:18:16;;;;;;;0.10;0.10;;;;;;;;;;6133166;23;20013;-90
2023/08/12 02:20:42;;;;;;;0.10;0.10;;;;;;;;;;6182861;23;20053;-92
2023/08/12 02:23:08;;;;;;;0.10;0.10;;;;;;;;;;6158644;23;20020;-91
2023/08/12 02:25:34;;;;;;;0.10;0.10;;;;;;;;;;6133637;23;20080;-91
2023/08/12 02:28:00;;;;;;;0.10;0.10;;;;;;;;;;6133546;23;20013;-91
2023/08/12 02:30:26;;;;;;;0.10;0.10;;;;;;;;;;6183394;23;20009;-91
2023/08/12 02:32:52;;;;;;;0.10;0.10;;;;;;;;;;6158652;23;20009;-92
2023/08/12 02:35:18;;;;;;;0.20;0.20;;;;;;;;;;6158641;23;20016;-91
2023/08/12 02:37:44;;;;;;;0.10;0.10;;;;;;;;;;6182611;23;20019;-91
2023/08/12 02:40:10;;;;;;;0.10;0.10;;;;;;;;;;6133994;23;20040;-92
2023/08/12 02:42:36;;;;;;;0.10;0.10;;;;;;;;;;6158308;23;20097;-91
2023/08/12 02:45:03;;;;;;;0.10;0.10;;;;;;;;;;6182205;23;20116;-91
2023/08/12 02:47:29;;;;;;;0.10;0.10;;;;;;;;;;6133384;23;20013;-91
2023/08/12 02:49:55;;;;;;;0.10;0.10;;;;;;;;;;6157806;23;20016;-92
2023/08/12 02:52:21;;;;;;;0.10;0.10;;;;;;;;;;6158409;23;20358;-91
2023/08/12 02:54:47;;;;;;;0.10;0.10;;;;;;;;;;6158126;23;20067;-91
2023/08/12 02:57:13;;;;;;;0.10;0.10;;;;;;;;;;6158375;23;20017;-91
2023/08/12 02:59:39;;;;;;;0.10;0.10;;;;;;;;;;6158142;23;20063;-92
2023/08/12 03:02:05;;;;;;;0.10;0.10;;;;;;;;;;6133598;23;20017;-91
2023/08/12 03:04:31;;;;;;;0.10;0.10;;;;;;;;;;6158401;23;20009;-92
2023/08/12 03:06:58;;;;;;;0.10;0.10;;;;;;;;;;6157903;23;20017;-91
2023/08/12 03:09:24;;;;;;;0.10;0.10;;;;;;;;;;6184455;23;20013;-91
2023/08/12 03:11:50;;;;;;;0.10;0.10;;;;;;;;;;6133029;23;20035;-90
2023/08/12 03:14:16;;;;;;;0.10;0.10;;;;;;;;;;6157634;23;20013;-91
2023/08/12 03:16:42;;;;;;;0.10;0.10;;;;;;;;;;6133199;23;20021;-91
2023/08/12 03:19:08;;;;;;;0.15;0.15;;;;;;;;;;6157652;23;20075;-91
2023/08/12 03:21:34;;;;;;;0.10;0.10;;;;;;;;;;6109007;23;20024;-91
2023/08/12 03:24:00;;;;;;;0.10;0.10;;;;;;;;;;6184462;23;20340;-91
2023/08/12 03:26:26;;;;;;;0.10;0.10;;;;;;;;;;6133392;23;20440;-92
2023/08/12 03:28:52;;;;;;;0.20;0.20;;;;;;;;;;6158300;23;20020;-92
2023/08/12 03:31:18;;;;;;;0.10;0.10;;;;;;;;;;6133788;23;20020;-92
2023/08/12 03:33:47;;;;;;;0.10;0.10;;;;;;;;;;6133469;23;20009;-91
2023/08/12 03:36:13;;;;;;;0.10;0.10;;;;;;;;;;6157806;23;20017;-93
2023/08/12 03:38:39;;;;;;;0.10;0.10;;;;;;;;;;6182566;23;20020;-92
2023/08/12 03:41:05;;;;;;;0.10;0.10;;;;;;;;;;6158398;23;20017;-91
2023/08/12 03:43:33;;;;;;;0.10;0.10;;;;;;;;;;6133625;23;20396;-91
2023/08/12 03:45:59;;;;;;;0.10;0.10;;;;;;;;;;6133970;23;20017;-92
2023/08/12 03:48:25;;;;;;;0.10;0.10;;;;;;;;;;6184021;23;20013;-92
2023/08/12 03:50:51;;;;;;;0.10;0.10;;;;;;;;;;6158001;23;20092;-92
2023/08/12 03:53:17;;;;;;;0.10;0.10;;;;;;;;;;6132987;23;20009;-91
2023/08/12 03:55:43;;;;;;;0.10;0.10;;;;;;;;;;6184517;23;20375;-90
2023/08/12 03:58:09;;;;;;;0.10;0.10;;;;;;;;;;6134437;23;20013;-90
2023/08/12 04:00:35;;;;;;;0.20;0.20;;;;;;;;;;6159340;23;20017;-91
2023/08/12 04:03:01;;;;;;;0.10;0.10;;;;;;;;;;6159070;23;20016;-90
2023/08/12 04:05:27;;;;;;;0.10;0.10;;;;;;;;;;6134838;23;20081;-90
2023/08/12 04:07:53;;;;;;;0.10;0.10;;;;;;;;;;6159374;23;20089;-91
2023/08/12 04:10:19;;;;;;;0.10;0.10;;;;;;;;;;6134646;23;20408;-91
2023/08/12 04:12:45;;;;;;;0.20;0.20;;;;;;;;;;6134538;23;20036;-90
2023/08/12 04:15:11;;;;;;;0.20;0.20;;;;;;;;;;6159869;23;20009;-91
2023/08/12 04:17:39;;;;;;;0.20;0.20;;;;;;;;;;6159397;23;20092;-91
2023/08/12 04:20:06;;;;;;;0.20;0.20;;;;;;;;;;6159474;23;20017;-91
2023/08/12 04:22:32;;;;;;;0.20;0.20;;;;;;;;;;6134710;23;20009;-90
2023/08/12 04:24:58;;;;;;;0.10;0.10;;;;;;;;;;6159191;23;20047;-91
2023/08/12 04:27:24;;;;;;;0.10;0.10;;;;;;;;;;6134308;23;20013;-91
2023/08/12 04:29:50;;;;;;;0.10;0.10;;;;;;;;;;6134343;23;20104;-90
2023/08/12 04:32:16;;;;;;;0.10;0.10;;;;;;;;;;6134586;23;20052;-91
2023/08/12 04:34:42;;;;;;;0.10;0.10;;;;;;;;;;6134714;23;20404;-91
2023/08/12 04:37:08;;;;;;;0.10;0.10;;;;;;;;;;6134990;23;20020;-91
2023/08/12 04:39:34;;;;;;;0.20;0.20;;;;;;;;;;6159332;23;20023;-92
2023/08/12 04:42:00;;;;;;;0.10;0.10;;;;;;;;;;6134584;23;20013;-92
2023/08/12 04:44:26;;;;;;;0.17;0.17;;;;;;;;;;6185762;23;20021;-92
2023/08/12 04:46:52;;;;;;;0.10;0.10;;;;;;;;;;6159190;23;20028;-90
2023/08/12 04:49:18;;;;;;;0.10;0.10;;;;;;;;;;6159056;23;20300;-91
2023/08/12 04:51:44;;;;;;;0.10;0.10;;;;;;;;;;6135124;23;20009;-91
2023/08/12 04:54:10;;;;;;;0.10;0.10;;;;;;;;;;6134380;23;20087;-92
2023/08/12 04:56:36;;;;;;;0.10;0.10;;;;;;;;;;6159655;23;20027;-92
2023/08/12 04:59:03;;;;;;;0.10;0.10;;;;;;;;;;6159231;23;20017;-90
2023/08/12 05:01:29;;;;;;;0.10;0.10;;;;;;;;;;6158781;23;20012;-91
2023/08/12 05:03:55;;;;;;;0.10;0.10;;;;;;;;;;6159018;23;20068;-92
2023/08/12 05:06:21;;;;;;;0.10;0.10;;;;;;;;;;6158644;23;20440;-90
2023/08/12 05:08:47;;;;;;;0.10;0.10;;;;;;;;;;6158959;23;20041;-88
2023/08/12 05:11:13;;;;;;;0.10;0.10;;;;;;;;;;6158619;23;20079;-91
2023/08/12 05:13:39;;;;;;;0.10;0.10;;;;;;;;;;6158910;23;20458;-92
2023/08/12 05:16:05;;;;;;;0.10;0.10;;;;;;;;;;6134416;23;20029;-90
2023/08/12 05:18:31;;;;;;;0.10;0.10;;;;;;;;;;6158663;23;20021;-92
2023/08/12 05:20:58;;;;;;;0.10;0.10;;;;;;;;;;6134450;23;20056;-91
2023/08/12 05:23:24;;;;;;;0.10;0.10;;;;;;;;;;6134383;23;20017;-91
2023/08/12 05:25:50;;;;;;;0.10;0.10;;;;;;;;;;6134220;23;20485;-91
2023/08/12 05:28:17;;;;;;;0.20;0.20;;;;;;;;;;6134310;23;20431;-91
2023/08/12 05:30:43;;;;;;;0.10;0.10;;;;;;;;;;6158888;23;20032;-91
2023/08/12 05:33:09;;;;;;;0.10;0.10;;;;;;;;;;6134402;23;20013;-91
2023/08/12 05:35:35;;;;;;;0.10;0.10;;;;;;;;;;6158621;23;20076;-92
2023/08/12 05:38:01;;;;;;;0.10;0.10;;;;;;;;;;6158863;23;20013;-92
2023/08/12 05:40:27;;;;;;;0.10;0.10;;;;;;;;;;6134614;23;20048;-92
2023/08/12 05:42:53;;;;;;;0.13;0.13;;;;;;;;;;6159131;23;20024;-92
2023/08/12 05:45:19;;;;;;;0.10;0.10;;;;;;;;;;6134384;23;20013;-92
2023/08/12 05:47:45;;;;;;;0.10;0.10;;;;;;;;;;6134779;23;20013;-92
2023/08/12 05:50:11;;;;;;;0.10;0.10;;;;;;;;;;6134213;23;20045;-92
2023/08/12 05:52:37;;;;;;;0.10;0.10;;;;;;;;;;6134568;23;20013;-92
2023/08/12 05:55:04;;;;;;;0.10;0.10;;;;;;;;;;6158845;23;20040;-92
2023/08/12 05:57:30;;;;;;;0.10;0.10;;;;;;;;;;6134147;23;20028;-92
2023/08/12 05:59:56;;;;;;;0.10;0.10;;;;;;;;;;6158960;23;20013;-92
2023/08/12 06:02:26;;;;;;;0.10;0.10;;;;;;;;;;6159780;23;20080;-93
2023/08/12 06:04:52;;;;;;;0.10;0.10;;;;;;;;;;6184623;23;20020;-93
2023/08/12 06:07:18;;;;;;;0.10;0.10;;;;;;;;;;6133841;23;20319;-91
2023/08/12 06:09:44;;;;;;;0.17;0.17;;;;;;;;;;6132704;23;20013;-92
2023/08/12 06:12:10;;;;;;;0.10;0.10;;;;;;;;;;6134017;23;20016;-93
2023/08/12 06:14:39;;;;;;;0.10;0.10;;;;;;;;;;6134051;23;20316;-92
2023/08/12 06:17:05;;;;;;;0.10;0.10;;;;;;;;;;6158602;23;20095;-91
2023/08/12 06:19:31;;;;;;;0.10;0.10;;;;;;;;;;6133718;23;20067;-92
2023/08/12 06:21:57;;;;;;;0.15;0.15;;;;;;;;;;6133973;23;20017;-92
2023/08/12 06:24:23;;;;;;;0.30;0.30;;;;;;;;;;6134245;23;20442;-91
2023/08/12 06:26:49;;;;;;;0.10;0.10;;;;;;;;;;6157994;23;20017;-91
2023/08/12 06:29:15;;;;;;;0.10;0.10;;;;;;;;;;6133205;23;20009;-91
2023/08/12 06:31:41;;;;;;;0.10;0.10;;;;;;;;;;6182858;23;20020;-91
2023/08/12 06:34:07;;;;;;;0.10;0.10;;;;;;;;;;6133912;23;20010;-92
2023/08/12 06:36:33;;;;;;;0.20;0.20;;;;;;;;;;6158312;23;20013;-92
2023/08/12 06:38:59;;;;;;;0.20;0.20;;;;;;;;;;6133890;23;20402;-92
2023/08/12 06:41:25;;;;;;;0.10;0.10;;;;;;;;;;6133617;23;20017;-92
2023/08/12 06:43:51;;;;;;;0.10;0.10;;;;;;;;;;6158539;23;20020;-92
2023/08/12 06:46:17;;;;;;;0.20;0.20;;;;;;;;;;6133476;23;20052;-92
2023/08/12 06:48:43;;;;;;;0.10;0.10;;;;;;;;;;6134139;23;20048;-93
2023/08/12 06:51:12;;;;;;;0.20;0.20;;;;;;;;;;6133397;23;20044;-93
2023/08/12 06:53:41;;;;;;;0.20;0.20;;;;;;;;;;6134582;23;20469;-94
2023/08/12 06:56:07;;;;;;;0.10;0.10;;;;;;;;;;6134365;23;20027;-92
2023/08/12 06:58:33;;;;;;;0.10;0.10;;;;;;;;;;6134036;23;20087;-92
2023/08/12 07:00:59;;;;;;;0.10;0.10;;;;;;;;;;6182879;23;20024;-92
2023/08/12 07:03:26;;;;;;;0.10;0.10;;;;;;;;;;6134092;23;20016;-93
2023/08/12 07:05:52;;;;;;;0.10;0.10;;;;;;;;;;6135746;23;20091;-94
2023/08/12 07:08:18;;;;;;;0.20;0.20;;;;;;;;;;6158562;23;20022;-93
2023/08/12 07:10:44;;;;;;;0.10;0.10;;;;;;;;;;6159137;23;20459;-91
2023/08/12 07:13:10;;;;;;;0.10;0.10;;;;;;;;;;6158017;23;20009;-91
2023/08/12 07:15:36;;;;;;;0.20;0.20;;;;;;;;;;6133621;23;20021;-93
2023/08/12 07:18:02;;;;;;;0.10;0.10;;;;;;;;;;6133311;23;20013;-93
2023/08/12 07:20:28;;;;;;;0.10;0.10;;;;;;;;;;6133243;23;20017;-93
2023/08/12 07:22:55;;;;;;;0.10;0.10;;;;;;;;;;6133717;23;20079;-88
2023/08/12 07:25:21;;;;;;;0.10;0.10;;;;;;;;;;6181936;23;20096;-90
2023/08/12 07:27:47;;;;;;;0.15;0.15;;;;;;;;;;6133219;23;20020;-91
2023/08/12 07:30:13;;;;;;;0.17;0.17;;;;;;;;;;6133093;23;20005;-89
2023/08/12 07:32:39;;;;;;;0.10;0.10;;;;;;;;;;6185711;23;20020;-87
2023/08/12 07:35:06;;;;;;;0.10;0.10;;;;;;;;;;6159347;23;20006;-88
2023/08/12 07:37:32;;;;;;;0.10;0.10;;;;;;;;;;6134436;23;20009;-89
2023/08/12 07:39:58;;;;;;;0.20;0.20;;;;;;;;;;6185873;23;20017;-88
2023/08/12 07:42:24;;;;;;;0.10;0.10;;;;;;;;;;6184577;23;20098;-88
2023/08/12 07:44:50;;;;;;;0.10;0.10;;;;;;;;;;6183798;23;20032;-89
2023/08/12 07:47:16;;;;;;;0.10;0.10;;;;;;;;;;6159391;23;20329;-92
2023/08/12 07:49:42;;;;;;;0.10;0.10;;;;;;;;;;6135932;23;20013;-89
2023/08/12 07:52:08;;;;;;;0.10;0.10;;;;;;;;;;6134100;23;20091;-89
2023/08/12 07:54:34;;;;;;;0.10;0.10;;;;;;;;;;6159462;23;20036;-88
2023/08/12 07:57:00;;;;;;;0.10;0.10;;;;;;;;;;6158844;23;20036;-88
2023/08/12 07:59:26;;;;;;;0.10;0.10;;;;;;;;;;6159385;23;20017;-88
2023/08/12 08:01:52;;;;;;;0.20;0.20;;;;;;;;;;6158996;23;20291;-88
2023/08/12 08:04:18;;;;;;;0.10;0.10;;;;;;;;;;6183625;23;20044;-88
2023/08/12 08:06:44;;;;;;;0.10;0.10;;;;;;;;;;6185468;23;20321;-90
2023/08/12 08:09:10;;;;;;;0.10;0.10;;;;;;;;;;6185956;23;20009;-89
2023/08/12 08:11:36;;;;;;;0.20;0.20;;;;;;;;;;6158934;23;20363;-90
2023/08/12 08:14:02;;;;;;;0.10;0.10;;;;;;;;;;6134589;23;20103;-90
2023/08/12 08:16:28;;;;;;;0.20;0.20;;;;;;;;;;6134253;23;20123;-90
2023/08/12 08:18:54;;;;;;;0.10;0.10;;;;;;;;;;6159169;23;20078;-90
2023/08/12 08:21:20;;;;;;;0.43;0.43;;;;;;;;;;6133874;23;20093;-90
2023/08/12 08:23:46;;;;;;;0.13;0.13;;;;;;;;;;6159229;23;20021;-89
2023/08/12 08:26:15;;;;;;;0.10;0.10;;;;;;;;;;6160071;23;20044;-94
2023/08/12 08:28:41;;;;;;;0.10;0.10;;;;;;;;;;6135724;23;20009;-89
2023/08/12 08:31:07;;;;;;;0.10;0.10;;;;;;;;;;6158408;23;20021;-90
2023/08/12 08:33:33;;;;;;;0.20;0.20;;;;;;;;;;6133761;23;20009;-88
2023/08/12 08:35:59;;;;;;;0.20;0.20;;;;;;;;;;6185168;23;20016;-91
2023/08/12 08:38:25;;;;;;;0.10;0.10;;;;;;;;;;6158601;23;20076;-88
2023/08/12 08:40:51;;;;;;;0.30;0.30;;;;;;;;;;6158424;23;20016;-88
2023/08/12 08:43:20;;;;;;;0.10;0.10;;;;;;;;;;6133556;23;20024;-89
2023/08/12 08:45:46;;;;;;;0.20;0.20;;;;;;;;;;6133765;23;20443;-88
2023/08/12 08:48:11;;;;;;;0.10;0.10;;;;;;;;;;6133433;23;20009;-89
2023/08/12 08:50:38;;;;;;;0.20;0.20;;;;;;;;;;6184736;23;20439;-90
2023/08/12 08:53:04;;;;;;;0.10;0.10;;;;;;;;;;6158360;23;20443;-91
2023/08/12 08:55:30;;;;;;;0.10;0.10;;;;;;;;;;6158611;23;20019;-91
2023/08/12 08:57:57;;;;;;;0.20;0.20;;;;;;;;;;6134021;23;20390;-91
2023/08/12 09:00:23;;;;;;;0.10;0.10;;;;;;;;;;6158526;23;20093;-90
2023/08/12 09:02:49;;;;;;;0.10;0.10;;;;;;;;;;6134192;23;20013;-90
2023/08/12 09:05:15;;;;;;;0.10;0.10;;;;;;;;;;6134184;23;20013;-96
2023/08/12 09:07:42;;;;;;;0.20;0.20;;;;;;;;;;6134347;23;20020;-90
2023/08/12 09:10:08;;;;;;;0.13;0.13;;;;;;;;;;6133526;23;20319;-90
2023/08/12 09:12:34;;;;;;;0.10;0.10;;;;;;;;;;6158218;23;20089;-90
2023/08/12 09:15:00;;;;;;;0.10;0.10;;;;;;;;;;6158206;23;20041;-90
2023/08/12 09:17:26;;;;;;;0.10;0.10;;;;;;;;;;6158038;23;20072;-90
2023/08/12 09:19:52;;;;;;;0.10;0.10;;;;;;;;;;6158165;23;20077;-90
2023/08/12 09:22:18;;;;;;;0.10;0.10;;;;;;;;;;6158255;23;20017;-91
2023/08/12 09:24:44;;;;;;;0.22;0.22;;;;;;;;;;6133693;23;20021;-91
2023/08/12 09:27:10;;;;;;;0.10;0.10;;;;;;;;;;6158153;23;20408;-90
2023/08/12 09:29:36;;;;;;;0.10;0.10;;;;;;;;;;6158149;23;20318;-90
2023/08/12 09:32:06;;;;;;;0.15;0.15;;;;;;;;;;6133544;23;20281;-89
2023/08/12 09:34:32;;;;;;;0.10;0.10;;;;;;;;;;6158138;23;20017;-89
2023/08/12 09:36:58;;;;;;;0.10;0.10;;;;;;;;;;6133150;23;20388;-89
2023/08/12 09:39:24;;;;;;;0.10;0.10;;;;;;;;;;6158114;23;20104;-89
2023/08/12 09:41:50;;;;;;;0.10;0.10;;;;;;;;;;6157995;23;20086;-90
2023/08/12 09:44:16;;;;;;;0.10;0.10;;;;;;;;;;6157843;23;20013;-89
2023/08/12 09:46:42;;;;;;;0.20;0.20;;;;;;;;;;6157993;23;20098;-89
2023/08/12 09:49:08;;;;;;;0.10;0.10;;;;;;;;;;6133022;23;20017;-90
2023/08/12 09:51:34;;;;;;;0.10;0.10;;;;;;;;;;6133305;23;20017;-89
2023/08/12 09:54:00;;;;;;;0.10;0.10;;;;;;;;;;6132545;23;20013;-90
2023/08/12 09:56:28;;;;;;;0.10;0.10;;;;;;;;;;6157589;23;20051;-89
2023/08/12 09:58:55;;;;;;;0.20;0.20;;;;;;;;;;6158714;23;20088;-89
2023/08/12 10:01:21;;;;;;;0.10;0.10;;;;;;;;;;6157743;23;20075;-89
2023/08/12 10:03:50;;;;;;;0.10;0.10;;;;;;;;;;6158440;23;20013;-89
2023/08/12 10:06:16;;;;;;;0.10;0.10;;;;;;;;;;6132904;23;20013;-89
2023/08/12 10:08:42;;;;;;;0.10;0.10;;;;;;;;;;6133763;23;20009;-90
2023/08/12 10:11:08;;;;;;;0.10;0.10;;;;;;;;;;6133691;23;20010;-89
2023/08/12 10:13:34;;;;;;;0.10;0.10;;;;;;;;;;6133426;23;20009;-89
2023/08/12 10:16:00;;;;;;;0.10;0.10;;;;;;;;;;6158086;23;20013;-92
2023/08/12 10:18:26;;;;;;;0.10;0.10;;;;;;;;;;6134223;23;20017;-88
2023/08/12 10:20:52;;;;;;;0.10;0.10;;;;;;;;;;6134825;23;20059;-90
2023/08/12 10:23:18;;;;;;;0.10;0.10;;;;;;;;;;6158855;23;20316;-90
2023/08/12 10:25:44;;;;;;;0.10;0.10;;;;;;;;;;6133474;23;20328;-90
2023/08/12 10:28:12;;;;;;;0.10;0.10;;;;;;;;;;6161579;23;20017;-89
2023/08/12 10:30:38;;;;;;;0.10;0.10;;;;;;;;;;6160973;23;20013;-87
2023/08/12 10:33:05;;;;;;;0.10;0.10;;;;;;;;;;6157879;23;20459;-89
2023/08/12 10:35:47;;;;;;;0.10;0.10;;;;;;;;;;6133036;23;20048;-89
2023/08/12 10:38:14;;;;;;;0.20;0.20;;;;;;;;;;6157447;23;20013;-90
2023/08/12 10:40:40;;;;;;;0.10;0.10;;;;;;;;;;6157623;23;20048;-90
2023/08/12 10:43:06;;;;;;;0.10;0.10;;;;;;;;;;6133323;23;20560;-88
2023/08/12 10:45:44;;;;;;;0.10;0.10;;;;;;;;;;6183935;23;20120;-90
2023/08/12 10:48:15;;;;;;;0.10;0.10;;;;;;;;;;6181995;23;20151;-89
2023/08/12 10:50:44;;;;;;;0.13;0.13;;;;;;;;;;6157591;23;20020;-89
2023/08/12 10:53:24;;;;;;;0.10;0.10;;;;;;;;;;6132607;23;20042;-90
2023/08/12 10:55:50;;;;;;;0.10;0.10;;;;;;;;;;6157782;23;20367;-89
2023/08/12 10:58:33;;;;;;;0.10;0.10;;;;;;;;;;6132686;23;20021;-89
2023/08/12 11:00:59;;;;;;;0.10;0.10;;;;;;;;;;6132880;23;20020;-91
2023/08/12 11:03:25;;;;;;;0.10;0.10;;;;;;;;;;6182068;23;20316;-90
2023/08/12 11:05:55;;;;;;;0.10;0.10;;;;;;;;;;6159212;23;20040;-92
2023/08/12 11:08:24;;;;;;;0.10;0.10;;;;;;;;;;6135635;23;20013;-90
2023/08/12 11:10:50;;;;;;;0.20;0.20;;;;;;;;;;6159649;23;20016;-90
2023/08/12 11:13:16;;;;;;;0.10;0.10;;;;;;;;;;6134838;23;20013;-89
2023/08/12 11:15:44;;;;;;;0.10;0.10;;;;;;;;;;6135050;23;20064;-90
2023/08/12 11:18:11;;;;;;;0.10;0.10;;;;;;;;;;6134851;23;20020;-90
2023/08/12 11:20:37;;;;;;;0.10;0.10;;;;;;;;;;6159150;23;20020;-90
2023/08/12 11:23:04;;;;;;;0.10;0.10;;;;;;;;;;6159734;23;20028;-90
2023/08/12 11:25:30;;;;;;;0.10;0.10;;;;;;;;;;6183813;23;20020;-89
2023/08/12 11:27:56;;;;;;;0.10;0.10;;;;;;;;;;6159749;23;20017;-89
2023/08/12 11:30:22;;;;;;;0.10;0.10;;;;;;;;;;6134948;23;20009;-89
2023/08/12 11:32:55;;;;;;;0.20;0.20;;;;;;;;;;6159555;23;20084;-88
2023/08/12 11:35:22;;;;;;;0.10;0.10;;;;;;;;;;6134392;23;20033;-88
2023/08/12 11:37:48;;;;;;;0.20;0.20;;;;;;;;;;6134235;23;20052;-88
2023/08/12 11:40:15;;;;;;;0.10;0.10;;;;;;;;;;6134581;23;20013;-88
2023/08/12 11:42:42;;;;;;;0.20;0.20;;;;;;;;;;6134173;23;20009;-88
2023/08/12 11:45:08;;;;;;;0.10;0.10;;;;;;;;;;6159021;23;20017;-88
2023/08/12 11:47:34;;;;;;;0.10;0.10;;;;;;;;;;6134169;23;20023;-91
2023/08/12 11:50:03;;;;;;;0.10;0.10;;;;;;;;;;6159325;23;20424;-90
2023/08/12 11:52:29;;;;;;;0.10;0.10;;;;;;;;;;6159268;23;20017;-90
2023/08/12 11:54:55;;;;;;;0.10;0.10;;;;;;;;;;6159155;23;20005;-90
2023/08/12 11:57:23;;;;;;;0.10;0.10;;;;;;;;;;6159102;23;20053;-90
2023/08/12 11:59:49;;;;;;;0.10;0.10;;;;;;;;;;6135104;23;20035;-90
2023/08/12 12:02:15;;;;;;;0.10;0.10;;;;;;;;;;6134780;23;20451;-90
2023/08/12 12:04:42;;;;;;;0.10;0.10;;;;;;;;;;6134905;23;20072;-90
2023/08/12 12:07:21;;;;;;;0.10;0.10;;;;;;;;;;6134726;23;20013;-90
2023/08/12 12:09:47;;;;;;;0.10;0.10;;;;;;;;;;6159342;23;20017;-90
2023/08/12 12:12:13;;;;;;;0.10;0.10;;;;;;;;;;6159245;23;20063;-88
2023/08/12 12:14:39;;;;;;;0.10;0.10;;;;;;;;;;6158706;23;20020;-88
2023/08/12 12:17:13;;;;;;;0.20;0.20;;;;;;;;;;6158054;23;20013;-88
2023/08/12 12:19:40;;;;;;;0.10;0.10;;;;;;;;;;6159511;23;20025;-91
2023/08/12 12:22:06;;;;;;;0.10;0.10;;;;;;;;;;6159263;23;20013;-93
2023/08/12 12:24:32;;;;;;;0.10;0.10;;;;;;;;;;6134899;23;20083;-90
2023/08/12 12:26:58;;;;;;;0.10;0.10;;;;;;;;;;6133878;23;20021;-88
2023/08/12 12:29:24;;;;;;;0.10;0.10;;;;;;;;;;6158827;23;20009;-91
2023/08/12 12:31:50;;;;;;;0.60;0.50;;;;;;;;;;6134107;23;20088;-90
2023/08/12 12:34:17;;;;;;;0.20;0.20;;;;;;;;;;6134374;23;20028;-91
2023/08/12 12:36:43;;;;;;;0.10;0.10;;;;;;;;;;6159041;23;20079;-91
2023/08/12 12:39:09;;;;;;;0.10;0.10;;;;;;;;;;6134095;23;20367;-91
2023/08/12 12:41:35;;;;;;;0.10;0.10;;;;;;;;;;6134192;23;20092;-92
2023/08/12 12:44:02;;;;;;;0.10;0.10;;;;;;;;;;6158615;23;20079;-91
2023/08/12 12:46:28;;;;;;;0.10;0.10;;;;;;;;;;6158048;23;20021;-89
2023/08/12 12:48:54;;;;;;;0.10;0.10;;;;;;;;;;6158491;23;20024;-88
2023/08/12 12:51:20;;;;;;;0.20;0.20;;;;;;;;;;6158924;23;20190;-88
2023/08/12 12:53:46;;;;;;;0.10;0.10;;;;;;;;;;6182888;23;20357;-88
2023/08/12 12:56:12;;;;;;;0.10;0.10;;;;;;;;;;6158130;23;20023;-89
2023/08/12 12:58:38;;;;;;;0.10;0.10;;;;;;;;;;6133639;23;20328;-88
2023/08/12 13:01:05;;;;;;;0.20;0.20;;;;;;;;;;6133751;23;20028;-91
2023/08/12 13:03:31;;;;;;;0.10;0.10;;;;;;;;;;6158428;23;20025;-90
2023/08/12 13:05:57;;;;;;;0.10;0.10;;;;;;;;;;6184493;23;20451;-89
2023/08/12 13:08:23;;;;;;;0.13;0.13;;;;;;;;;;6158190;23;20371;-89
2023/08/12 13:10:49;;;;;;;0.10;0.10;;;;;;;;;;6158703;23;20089;-88
2023/08/12 13:13:18;;;;;;;0.10;0.10;;;;;;;;;;6133270;23;20053;-89
2023/08/12 13:15:44;;;;;;;0.20;0.20;;;;;;;;;;6134380;23;20024;-89
2023/08/12 13:18:10;;;;;;;0.10;0.10;;;;;;;;;;6158023;23;20077;-90
2023/08/12 13:20:36;;;;;;;0.22;0.22;;;;;;;;;;6157897;23;20029;-90
2023/08/12 13:23:03;;;;;;;0.10;0.10;;;;;;;;;;6133476;23;20308;-89
2023/08/12 13:25:30;;;;;;;0.10;0.10;;;;;;;;;;6158378;23;20092;-89
2023/08/12 13:27:56;;;;;;;0.10;0.10;;;;;;;;;;6134021;23;20093;-89
2023/08/12 13:30:22;;;;;;;0.20;0.20;;;;;;;;;;6133625;23;20335;-91
2023/08/12 13:32:48;;;;;;;0.10;0.10;;;;;;;;;;6133444;23;20059;-90
2023/08/12 13:35:14;;;;;;;0.10;0.10;;;;;;;;;;6184510;23;20009;-90
2023/08/12 13:37:40;;;;;;;0.10;0.10;;;;;;;;;;6133469;23;20016;-89
2023/08/12 13:40:06;;;;;;;0.10;0.10;;;;;;;;;;6182430;23;20017;-90
2023/08/12 13:42:32;;;;;;;0.10;0.10;;;;;;;;;;6132846;23;20123;-90
2023/08/12 13:44:58;;;;;;;0.10;0.10;;;;;;;;;;6158203;23;20096;-89
2023/08/12 13:47:24;;;;;;;0.10;0.10;;;;;;;;;;6133230;23;20036;-90
2023/08/12 13:49:51;;;;;;;0.10;0.10;;;;;;;;;;6157988;23;20526;-90
2023/08/12 13:52:17;;;;;;;0.20;0.20;;;;;;;;;;6158320;23;20017;-89
2023/08/12 13:54:43;;;;;;;0.20;0.20;;;;;;;;;;6133015;23;20020;-90
2023/08/12 13:57:09;;;;;;;0.10;0.10;;;;;;;;;;6157774;23;20016;-89
2023/08/12 13:59:35;;;;;;;0.47;0.47;;;;;;;;;;6182294;23;20343;-90
2023/08/12 14:02:01;;;;;;;0.10;0.10;;;;;;;;;;6159067;23;20009;-92
2023/08/12 14:04:26;;;;;;;0.10;0.10;;;;;;;;;;6182551;23;20096;-92
2023/08/12 14:06:52;;;;;;;0.10;0.10;;;;;;;;;;6158023;23;20433;-92
2023/08/12 14:09:19;;;;;;;0.10;0.10;;;;;;;;;;6158346;23;20016;-93
2023/08/12 14:11:45;;;;;;;0.10;0.10;;;;;;;;;;6135090;23;20021;-94
2023/08/12 14:14:11;;;;;;;0.10;0.10;;;;;;;;;;6158325;23;20017;-92
2023/08/12 14:16:37;;;;;;;0.20;0.20;;;;;;;;;;6160759;23;20021;-94
2023/08/12 14:19:04;;;;;;;0.10;0.10;;;;;;;;;;6136399;23;20020;-93
2023/08/12 14:21:30;;;;;;;0.10;0.10;;;;;;;;;;6158467;23;20064;-93
2023/08/12 14:23:56;;;;;;;0.13;0.13;;;;;;;;;;6133399;23;20024;-93
2023/08/12 14:26:22;;;;;;;0.10;0.10;;;;;;;;;;6133583;23;20013;-92
2023/08/12 14:28:48;;;;;;;0.10;0.10;;;;;;;;;;6158565;23;20009;-93
2023/08/12 14:31:14;;;;;;;0.10;0.10;;;;;;;;;;6158448;23;20013;-94
2023/08/12 14:33:40;;;;;;;0.10;0.10;;;;;;;;;;6133568;23;20016;-93
2023/08/12 14:36:06;;;;;;;0.20;0.20;;;;;;;;;;6133554;23;20044;-92
2023/08/12 14:38:32;;;;;;;0.10;0.10;;;;;;;;;;6157831;23;20076;-92